createdAt,value
2023-11-18T00:00:18.190Z,3.56
2023-11-18T00:05:25.157Z,3.55
2023-11-18T00:10:31.798Z,3.54
2023-11-18T00:15:37.561Z,3.53
2023-11-18T00:20:44.418Z,3.52
2023-11-18T00:25:50.407Z,3.52
2023-11-18T00:30:56.539Z,3.52
2023-11-18T00:36:02.592Z,3.49
2023-11-18T00:41:10.510Z,3.46
2023-11-18T00:46:16.288Z,3.42
2023-11-18T00:51:22.052Z,3.41
2023-11-18T00:56:28.896Z,3.40
2023-11-18T01:01:34.718Z,3.39
2023-11-18T01:06:40.754Z,3.38
2023-11-18T01:12:07.208Z,3.38
2023-11-18T01:17:13.020Z,3.40
2023-11-18T01:22:19.973Z,3.42
2023-11-18T01:27:25.739Z,3.42
2023-11-18T01:32:32.269Z,3.39
2023-11-18T01:37:38.091Z,3.37
2023-11-18T01:42:47.662Z,3.37
2023-11-18T01:47:53.668Z,3.36
2023-11-18T01:53:02.447Z,3.35
2023-11-18T01:58:12.471Z,3.35
2023-11-18T02:03:18.302Z,3.34
2023-11-18T02:08:26.073Z,3.33
2023-11-18T02:13:38.459Z,3.30
2023-11-18T02:18:47.987Z,3.28
2023-11-18T02:23:54.585Z,3.28
2023-11-18T02:28:59.879Z,3.31
2023-11-18T02:34:17.819Z,3.33
2023-11-18T02:39:35.175Z,3.32
2023-11-18T02:44:41.823Z,3.34
2023-11-18T02:49:50.269Z,3.37
2023-11-18T02:54:56.201Z,3.38
2023-11-18T03:00:05.757Z,3.40
2023-11-18T03:05:13.226Z,3.42
2023-11-18T03:10:23.497Z,3.43
2023-11-18T03:15:29.468Z,3.46
2023-11-18T03:20:36.110Z,3.48
2023-11-18T03:25:41.891Z,3.51
2023-11-18T03:30:48.262Z,3.53
2023-11-18T03:35:54.105Z,3.53
2023-11-18T03:41:00.563Z,3.51
2023-11-18T03:46:05.169Z,3.50
2023-11-18T03:51:10.958Z,3.46
2023-11-18T03:56:20.640Z,3.43
2023-11-18T04:01:28.708Z,3.40
2023-11-18T04:06:34.493Z,3.38
2023-11-18T04:11:41.855Z,3.37
2023-11-18T04:16:48.711Z,3.35
2023-11-18T04:21:54.460Z,3.36
2023-11-18T04:27:01.070Z,3.36
2023-11-18T04:32:05.731Z,3.36
2023-11-18T04:37:11.515Z,3.35
2023-11-18T04:42:17.937Z,3.34
2023-11-18T04:47:23.740Z,3.33
2023-11-18T04:52:29.781Z,3.33
2023-11-18T04:57:36.253Z,3.35
2023-11-18T05:02:43.308Z,3.38
2023-11-18T05:07:49.136Z,3.41
2023-11-18T05:12:57.283Z,3.43
2023-11-18T05:18:03.131Z,3.45
2023-11-18T05:23:11.470Z,3.46
2023-11-18T05:28:18.368Z,3.46
2023-11-18T05:33:24.170Z,3.47
2023-11-18T05:38:33.810Z,3.45
2023-11-18T05:43:42.393Z,3.41
2023-11-18T05:48:49.749Z,3.39
2023-11-18T05:53:56.538Z,3.37
2023-11-18T05:59:04.700Z,3.35
2023-11-18T06:04:11.200Z,3.31
2023-11-18T06:09:22.464Z,3.27
2023-11-18T06:14:28.991Z,3.25
2023-11-18T06:19:34.996Z,3.24
2023-11-18T06:24:40.800Z,3.24
2023-11-18T06:29:46.904Z,3.21
2023-11-18T06:34:52.701Z,3.18
2023-11-18T06:39:58.472Z,3.19
2023-11-18T06:45:07.206Z,3.19
2023-11-18T06:50:15.585Z,3.20
2023-11-18T06:55:21.586Z,3.19
2023-11-18T07:00:29.629Z,3.20
2023-11-18T07:05:35.570Z,3.23
2023-11-18T07:10:42.601Z,3.26
2023-11-18T07:15:48.412Z,3.29
2023-11-18T07:20:54.238Z,3.33
2023-11-18T07:26:00.109Z,3.33
2023-11-18T07:31:06.650Z,3.35
2023-11-18T07:36:13.148Z,3.40
2023-11-18T07:41:24.875Z,3.42
2023-11-18T07:46:32.588Z,3.41
2023-11-18T07:51:38.775Z,3.37
2023-11-18T07:56:49.405Z,3.36
2023-11-18T08:01:55.782Z,3.35
2023-11-18T08:07:01.635Z,3.33
2023-11-18T08:12:10.561Z,3.35
2023-11-18T08:17:16.394Z,3.37
2023-11-18T08:22:24.438Z,3.38
2023-11-18T08:27:30.534Z,3.33
2023-11-18T08:32:40.165Z,3.28
2023-11-18T08:37:48.971Z,3.23
2023-11-18T08:42:57.425Z,3.13
2023-11-18T08:48:08.564Z,3.05
2023-11-18T08:53:20.005Z,3.02
2023-11-18T08:58:29.644Z,2.98
2023-11-18T09:03:44.901Z,2.95
2023-11-18T09:08:54.834Z,2.97
2023-11-18T09:14:02.616Z,3.02
2023-11-18T09:19:09.642Z,3.07
2023-11-18T09:24:16.489Z,3.09
2023-11-18T09:29:25.364Z,3.13
2023-11-18T09:34:34.851Z,3.13
2023-11-18T09:39:47.375Z,3.12
2023-11-18T09:44:55.065Z,3.05
2023-11-18T09:50:04.931Z,2.94
2023-11-18T09:55:21.174Z,2.78
2023-11-18T10:00:34.295Z,2.75
2023-11-18T10:05:43.358Z,2.73
2023-11-18T10:10:50.831Z,2.74
2023-11-18T10:15:58.941Z,2.74
2023-11-18T10:21:09.634Z,2.71
2023-11-18T10:26:16.293Z,2.70
2023-11-18T10:31:25.560Z,2.67
2023-11-18T10:36:34.694Z,2.69
2023-11-18T10:41:49.375Z,2.76
2023-11-18T10:47:00.470Z,2.82
2023-11-18T10:52:10.172Z,2.83
2023-11-18T10:57:16.388Z,2.83
2023-11-18T11:02:25.801Z,2.85
2023-11-18T11:07:35.663Z,2.89
2023-11-18T11:12:53.438Z,2.91
2023-11-18T11:18:10.405Z,2.91
2023-11-18T11:23:24.285Z,2.83
2023-11-18T11:28:45.441Z,2.69
2023-11-18T11:34:01.060Z,2.52
2023-11-18T11:39:12.166Z,2.40
2023-11-18T11:44:20.833Z,2.34
2023-11-18T11:49:31.388Z,2.34
2023-11-18T11:54:46.345Z,2.36
2023-11-18T12:00:16.592Z,2.38
2023-11-18T12:05:27.913Z,2.37
2023-11-18T12:10:37.530Z,2.40
2023-11-18T12:15:59.010Z,2.46
2023-11-18T12:21:05.729Z,2.46
2023-11-18T12:26:45.276Z,2.45
2023-11-18T12:31:52.020Z,2.42
2023-11-18T12:37:49.107Z,2.43
2023-11-18T12:43:07.870Z,2.41
2023-11-18T12:48:19.572Z,2.43
2023-11-18T12:53:27.757Z,2.47
2023-11-18T12:58:34.939Z,2.53
2023-11-18T13:03:42.136Z,2.57
2023-11-18T13:08:48.115Z,2.61
2023-11-18T13:13:55.737Z,2.64
2023-11-18T13:19:01.599Z,2.60
2023-11-18T13:24:09.676Z,2.58
2023-11-18T13:29:17.353Z,2.55
2023-11-18T13:34:23.545Z,2.56
2023-11-18T13:39:29.764Z,2.57
2023-11-18T13:44:40.733Z,2.55
2023-11-18T13:49:48.729Z,2.55
2023-11-18T13:54:57.436Z,2.54
2023-11-18T14:00:07.893Z,2.53
2023-11-18T14:05:22.945Z,2.54
2023-11-18T14:10:29.516Z,2.53
2023-11-18T14:15:35.776Z,2.52
2023-11-18T14:20:41.727Z,2.53
2023-11-18T14:25:47.848Z,2.51
2023-11-18T14:30:53.949Z,2.40
2023-11-18T14:35:59.720Z,2.36
2023-11-18T14:41:05.878Z,2.37
2023-11-18T14:46:11.942Z,2.41
2023-11-18T14:51:18.455Z,2.47
2023-11-18T14:56:24.593Z,2.48
2023-11-18T15:01:30.566Z,2.49
2023-11-18T15:06:36.339Z,2.51
2023-11-18T15:11:42.097Z,2.52
2023-11-18T15:16:48.231Z,2.54
2023-11-18T15:21:53.971Z,2.53
2023-11-18T15:27:01.366Z,2.55
2023-11-18T15:32:09.676Z,2.57
2023-11-18T15:37:15.667Z,2.55
2023-11-18T15:42:21.460Z,2.53
2023-11-18T15:47:27.294Z,2.50
2023-11-18T15:52:35.612Z,2.50
2023-11-18T15:57:43.518Z,2.47
2023-11-18T16:02:52.168Z,2.43
2023-11-18T16:07:59.739Z,2.38
2023-11-18T16:13:05.509Z,2.30
2023-11-18T16:18:11.331Z,2.30
2023-11-18T16:23:17.099Z,2.29
2023-11-18T16:28:22.842Z,2.26
2023-11-18T16:33:28.612Z,2.23
2023-11-18T16:38:34.492Z,2.22
2023-11-18T16:43:41.144Z,2.25
2023-11-18T16:48:45.309Z,2.22
2023-11-18T16:53:53.524Z,2.24
2023-11-18T16:59:00.972Z,2.21
2023-11-18T17:04:08.773Z,2.21
2023-11-18T17:09:14.818Z,2.20
2023-11-18T17:14:20.716Z,2.21
2023-11-18T17:19:27.455Z,2.20
2023-11-18T17:24:34.009Z,2.20
2023-11-18T17:29:39.729Z,2.18
2023-11-18T17:34:45.564Z,2.16
2023-11-18T17:39:51.322Z,2.18
2023-11-18T17:44:57.587Z,2.18
2023-11-18T17:50:09.467Z,2.19
2023-11-18T17:55:16.096Z,2.19
2023-11-18T18:00:24.803Z,2.21
2023-11-18T18:05:31.237Z,2.22
2023-11-18T18:10:37.212Z,2.22
2023-11-18T18:15:43.203Z,2.20
2023-11-18T18:20:50.604Z,2.18
2023-11-18T18:25:56.726Z,2.17
2023-11-18T18:31:02.631Z,2.14
2023-11-18T18:36:11.299Z,2.14
2023-11-18T18:41:17.019Z,2.15
2023-11-18T18:46:23.415Z,2.14
2023-11-18T18:51:29.234Z,2.14
2023-11-18T18:56:35.245Z,2.14
2023-11-18T19:01:41.186Z,2.12
2023-11-18T19:06:47.920Z,2.12
2023-11-18T19:11:52.613Z,2.13
2023-11-18T19:16:58.523Z,2.14
2023-11-18T19:22:07.510Z,2.14
2023-11-18T19:27:15.596Z,2.16
2023-11-18T19:32:21.349Z,2.16
2023-11-18T19:37:27.280Z,2.15
2023-11-18T19:42:33.729Z,2.12
2023-11-18T19:47:40.015Z,2.10
2023-11-18T19:52:46.242Z,2.12
2023-11-18T19:57:51.942Z,2.12
2023-11-18T20:02:57.920Z,2.12
2023-11-18T20:08:03.844Z,2.12
2023-11-18T20:13:09.677Z,2.12
2023-11-18T20:18:15.529Z,2.13
2023-11-18T20:23:22.811Z,2.14
2023-11-18T20:28:28.659Z,2.13
2023-11-18T20:33:42.399Z,2.14
2023-11-18T20:38:48.936Z,2.11
2023-11-18T20:43:54.663Z,2.03
2023-11-18T20:49:00.531Z,1.99
2023-11-18T20:54:08.586Z,1.98
2023-11-18T20:59:14.481Z,1.97
2023-11-18T21:04:21.185Z,1.98
2023-11-18T21:09:28.295Z,1.98
2023-11-18T21:14:35.121Z,1.97
2023-11-18T21:19:41.789Z,1.96
2023-11-18T21:24:45.989Z,1.93
2023-11-18T21:29:51.971Z,1.87
2023-11-18T21:34:57.972Z,1.80
2023-11-18T21:40:06.154Z,1.72
2023-11-18T21:45:15.183Z,1.63
2023-11-18T21:50:22.436Z,1.53
2023-11-18T21:55:30.506Z,1.44
2023-11-18T22:00:45.048Z,1.33
2023-11-18T22:05:51.985Z,1.22
2023-11-18T22:10:59.531Z,1.13
2023-11-18T22:16:06.282Z,1.04
2023-11-18T22:21:12.052Z,0.93
2023-11-18T22:26:19.370Z,0.82
2023-11-18T22:31:27.182Z,0.74
2023-11-18T22:36:33.540Z,0.69
2023-11-18T22:41:39.440Z,0.65
2023-11-18T22:46:45.342Z,0.59
2023-11-18T22:51:52.235Z,0.53
2023-11-18T22:56:57.564Z,0.48
2023-11-18T23:02:05.045Z,0.42
2023-11-18T23:07:11.093Z,0.38
2023-11-18T23:12:16.817Z,0.32
2023-11-18T23:17:24.652Z,0.28
2023-11-18T23:22:30.462Z,0.24
2023-11-18T23:27:38.081Z,0.21
2023-11-18T23:32:44.211Z,0.17
2023-11-18T23:37:52.430Z,0.12
2023-11-18T23:42:58.640Z,0.10
2023-11-18T23:48:04.671Z,0.07
2023-11-18T23:53:11.116Z,0.03
2023-11-18T23:58:16.951Z,0.01
